sensor_id;sensor_type;location;lat;lon;timestamp;P1;durP1;ratioP1;P2;durP2;ratioP2
13731;SDS011;6937;56.096;12.664;2023-03-21T00:00:23;6.30;;;2.58;;
13731;SDS011;6937;56.096;12.664;2023-03-21T00:02:48;8.68;;;2.67;;
13731;SDS011;6937;56.096;12.664;2023-03-21T00:05:14;9.23;;;3.30;;
13731;SDS011;6937;56.096;12.664;2023-03-21T00:07:39;7.65;;;2.88;;
13731;SDS011;6937;56.096;12.664;2023-03-21T00:10:05;7.60;;;3.20;;
13731;SDS011;6937;56.096;12.664;2023-03-21T00:12:30;8.93;;;3.30;;
13731;SDS011;6937;56.096;12.664;2023-03-21T00:14:57;8.02;;;2.80;;
13731;SDS011;6937;56.096;12.664;2023-03-21T00:17:28;10.20;;;2.60;;
13731;SDS011;6937;56.096;12.664;2023-03-21T00:19:56;10.40;;;2.42;;
13731;SDS011;6937;56.096;12.664;2023-03-21T00:22:25;6.63;;;2.60;;
13731;SDS011;6937;56.096;12.664;2023-03-21T00:24:52;7.78;;;2.78;;
13731;SDS011;6937;56.096;12.664;2023-03-21T00:27:18;7.55;;;2.88;;
13731;SDS011;6937;56.096;12.664;2023-03-21T00:29:44;9.27;;;3.35;;
13731;SDS011;6937;56.096;12.664;2023-03-21T00:32:10;11.82;;;3.65;;
13731;SDS011;6937;56.096;12.664;2023-03-21T00:34:36;9.45;;;3.20;;
13731;SDS011;6937;56.096;12.664;2023-03-21T00:37:02;8.57;;;2.97;;
13731;SDS011;6937;56.096;12.664;2023-03-21T00:39:28;7.13;;;3.17;;
13731;SDS011;6937;56.096;12.664;2023-03-21T00:41:53;9.23;;;3.20;;
13731;SDS011;6937;56.096;12.664;2023-03-21T00:44:19;4.50;;;3.10;;
13731;SDS011;6937;56.096;12.664;2023-03-21T00:46:45;10.02;;;3.65;;
13731;SDS011;6937;56.096;12.664;2023-03-21T00:49:10;7.43;;;3.00;;
13731;SDS011;6937;56.096;12.664;2023-03-21T00:51:35;7.90;;;3.35;;
13731;SDS011;6937;56.096;12.664;2023-03-21T00:54:01;8.52;;;3.60;;
13731;SDS011;6937;56.096;12.664;2023-03-21T00:56:29;8.77;;;3.88;;
13731;SDS011;6937;56.096;12.664;2023-03-21T00:58:55;10.43;;;3.90;;
13731;SDS011;6937;56.096;12.664;2023-03-21T01:01:21;8.85;;;3.95;;
13731;SDS011;6937;56.096;12.664;2023-03-21T01:03:46;10.48;;;3.90;;
13731;SDS011;6937;56.096;12.664;2023-03-21T01:06:28;8.50;;;3.47;;
13731;SDS011;6937;56.096;12.664;2023-03-21T01:08:53;5.95;;;3.25;;
13731;SDS011;6937;56.096;12.664;2023-03-21T01:11:21;6.88;;;2.90;;
13731;SDS011;6937;56.096;12.664;2023-03-21T01:13:49;6.18;;;3.15;;
13731;SDS011;6937;56.096;12.664;2023-03-21T01:16:15;11.10;;;3.75;;
13731;SDS011;6937;56.096;12.664;2023-03-21T01:18:40;4.97;;;2.80;;
13731;SDS011;6937;56.096;12.664;2023-03-21T01:21:07;7.38;;;3.47;;
13731;SDS011;6937;56.096;12.664;2023-03-21T01:23:38;9.13;;;3.67;;
13731;SDS011;6937;56.096;12.664;2023-03-21T01:26:06;8.32;;;3.42;;
13731;SDS011;6937;56.096;12.664;2023-03-21T01:28:33;7.28;;;3.33;;
13731;SDS011;6937;56.096;12.664;2023-03-21T01:30:59;10.40;;;4.03;;
13731;SDS011;6937;56.096;12.664;2023-03-21T01:33:26;9.82;;;4.25;;
13731;SDS011;6937;56.096;12.664;2023-03-21T01:35:52;7.18;;;3.78;;
13731;SDS011;6937;56.096;12.664;2023-03-21T01:38:17;8.85;;;4.20;;
13731;SDS011;6937;56.096;12.664;2023-03-21T01:40:44;7.72;;;3.40;;
13731;SDS011;6937;56.096;12.664;2023-03-21T01:43:21;10.75;;;4.07;;
13731;SDS011;6937;56.096;12.664;2023-03-21T01:46:16;10.00;;;4.28;;
13731;SDS011;6937;56.096;12.664;2023-03-21T01:48:47;9.18;;;3.78;;
13731;SDS011;6937;56.096;12.664;2023-03-21T01:51:17;8.77;;;4.00;;
13731;SDS011;6937;56.096;12.664;2023-03-21T01:53:44;9.82;;;4.35;;
13731;SDS011;6937;56.096;12.664;2023-03-21T01:56:13;13.65;;;4.40;;
13731;SDS011;6937;56.096;12.664;2023-03-21T01:58:49;13.15;;;5.05;;
13731;SDS011;6937;56.096;12.664;2023-03-21T02:01:19;8.38;;;4.60;;
13731;SDS011;6937;56.096;12.664;2023-03-21T02:03:47;11.15;;;4.65;;
13731;SDS011;6937;56.096;12.664;2023-03-21T02:06:16;11.32;;;4.72;;
13731;SDS011;6937;56.096;12.664;2023-03-21T02:08:48;10.30;;;4.97;;
13731;SDS011;6937;56.096;12.664;2023-03-21T02:11:13;6.57;;;3.95;;
13731;SDS011;6937;56.096;12.664;2023-03-21T02:13:40;10.02;;;4.28;;
13731;SDS011;6937;56.096;12.664;2023-03-21T02:18:48;9.60;;;5.28;;
13731;SDS011;6937;56.096;12.664;2023-03-21T02:21:22;14.82;;;6.47;;
13731;SDS011;6937;56.096;12.664;2023-03-21T02:37:45;16.05;;;7.22;;
13731;SDS011;6937;56.096;12.664;2023-03-21T02:40:22;17.08;;;7.32;;
13731;SDS011;6937;56.096;12.664;2023-03-21T02:45:46;20.30;;;8.77;;
13731;SDS011;6937;56.096;12.664;2023-03-21T02:48:18;15.05;;;7.88;;
13731;SDS011;6937;56.096;12.664;2023-03-21T02:50:50;18.27;;;8.27;;
13731;SDS011;6937;56.096;12.664;2023-03-21T02:53:18;18.90;;;8.38;;
13731;SDS011;6937;56.096;12.664;2023-03-21T02:55:47;18.92;;;8.48;;
13731;SDS011;6937;56.096;12.664;2023-03-21T02:58:16;24.73;;;9.73;;
13731;SDS011;6937;56.096;12.664;2023-03-21T03:00:45;18.60;;;9.20;;
13731;SDS011;6937;56.096;12.664;2023-03-21T03:03:13;18.33;;;9.20;;
13731;SDS011;6937;56.096;12.664;2023-03-21T03:05:43;19.20;;;7.72;;
13731;SDS011;6937;56.096;12.664;2023-03-21T03:11:58;13.80;;;7.53;;
13731;SDS011;6937;56.096;12.664;2023-03-21T03:14:04;14.35;;;6.85;;
13731;SDS011;6937;56.096;12.664;2023-03-21T03:16:54;16.80;;;8.00;;
13731;SDS011;6937;56.096;12.664;2023-03-21T03:22:25;22.20;;;8.97;;
13731;SDS011;6937;56.096;12.664;2023-03-21T03:25:06;24.85;;;10.57;;
13731;SDS011;6937;56.096;12.664;2023-03-21T03:27:38;30.93;;;10.87;;
13731;SDS011;6937;56.096;12.664;2023-03-21T03:30:08;26.37;;;9.97;;
13731;SDS011;6937;56.096;12.664;2023-03-21T03:32:41;23.35;;;9.85;;
13731;SDS011;6937;56.096;12.664;2023-03-21T03:35:12;25.15;;;9.63;;
13731;SDS011;6937;56.096;12.664;2023-03-21T03:37:41;18.17;;;9.55;;
13731;SDS011;6937;56.096;12.664;2023-03-21T03:42:43;26.17;;;10.23;;
13731;SDS011;6937;56.096;12.664;2023-03-21T03:45:16;19.47;;;9.60;;
13731;SDS011;6937;56.096;12.664;2023-03-21T03:50:28;19.10;;;8.97;;
13731;SDS011;6937;56.096;12.664;2023-03-21T03:53:00;17.75;;;8.02;;
13731;SDS011;6937;56.096;12.664;2023-03-21T03:55:30;14.53;;;7.23;;
13731;SDS011;6937;56.096;12.664;2023-03-21T03:57:59;18.85;;;9.43;;
13731;SDS011;6937;56.096;12.664;2023-03-21T04:00:26;17.30;;;8.80;;
13731;SDS011;6937;56.096;12.664;2023-03-21T04:02:55;10.95;;;6.20;;
13731;SDS011;6937;56.096;12.664;2023-03-21T04:05:23;49.92;;;10.52;;
13731;SDS011;6937;56.096;12.664;2023-03-21T04:07:49;10.48;;;6.13;;
13731;SDS011;6937;56.096;12.664;2023-03-21T04:10:15;16.08;;;6.03;;
13731;SDS011;6937;56.096;12.664;2023-03-21T04:12:41;14.48;;;5.00;;
13731;SDS011;6937;56.096;12.664;2023-03-21T04:15:07;14.98;;;6.10;;
13731;SDS011;6937;56.096;12.664;2023-03-21T04:17:33;8.82;;;5.70;;
13731;SDS011;6937;56.096;12.664;2023-03-21T04:19:58;11.43;;;6.28;;
13731;SDS011;6937;56.096;12.664;2023-03-21T04:22:24;12.02;;;7.22;;
13731;SDS011;6937;56.096;12.664;2023-03-21T04:24:49;24.77;;;8.30;;
13731;SDS011;6937;56.096;12.664;2023-03-21T04:27:15;24.75;;;8.63;;
13731;SDS011;6937;56.096;12.664;2023-03-21T04:29:41;21.85;;;8.70;;
13731;SDS011;6937;56.096;12.664;2023-03-21T04:32:06;19.60;;;9.18;;
13731;SDS011;6937;56.096;12.664;2023-03-21T04:34:40;22.10;;;9.23;;
13731;SDS011;6937;56.096;12.664;2023-03-21T04:37:07;20.70;;;9.30;;
13731;SDS011;6937;56.096;12.664;2023-03-21T04:39:36;20.10;;;9.65;;
13731;SDS011;6937;56.096;12.664;2023-03-21T04:42:02;12.40;;;6.80;;
13731;SDS011;6937;56.096;12.664;2023-03-21T04:44:28;16.20;;;7.95;;
13731;SDS011;6937;56.096;12.664;2023-03-21T04:46:53;13.98;;;7.35;;
13731;SDS011;6937;56.096;12.664;2023-03-21T04:49:19;16.08;;;8.15;;
13731;SDS011;6937;56.096;12.664;2023-03-21T04:51:45;15.98;;;7.80;;
13731;SDS011;6937;56.096;12.664;2023-03-21T04:54:11;15.00;;;7.20;;
13731;SDS011;6937;56.096;12.664;2023-03-21T04:56:40;10.47;;;6.23;;
13731;SDS011;6937;56.096;12.664;2023-03-21T04:59:11;16.73;;;7.55;;
13731;SDS011;6937;56.096;12.664;2023-03-21T05:01:38;16.13;;;8.13;;
13731;SDS011;6937;56.096;12.664;2023-03-21T05:04:08;13.20;;;6.45;;
13731;SDS011;6937;56.096;12.664;2023-03-21T05:06:34;10.73;;;5.50;;
13731;SDS011;6937;56.096;12.664;2023-03-21T05:09:00;9.80;;;6.40;;
13731;SDS011;6937;56.096;12.664;2023-03-21T05:11:29;10.35;;;6.30;;
13731;SDS011;6937;56.096;12.664;2023-03-21T05:13:56;10.40;;;6.15;;
13731;SDS011;6937;56.096;12.664;2023-03-21T05:16:24;14.50;;;7.10;;
13731;SDS011;6937;56.096;12.664;2023-03-21T05:18:54;16.90;;;7.57;;
13731;SDS011;6937;56.096;12.664;2023-03-21T05:21:21;10.48;;;6.13;;
13731;SDS011;6937;56.096;12.664;2023-03-21T05:23:47;8.50;;;6.50;;
13731;SDS011;6937;56.096;12.664;2023-03-21T05:26:19;12.45;;;7.75;;
13731;SDS011;6937;56.096;12.664;2023-03-21T05:28:46;14.70;;;8.02;;
13731;SDS011;6937;56.096;12.664;2023-03-21T05:31:15;8.82;;;6.43;;
13731;SDS011;6937;56.096;12.664;2023-03-21T05:33:42;12.95;;;7.72;;
13731;SDS011;6937;56.096;12.664;2023-03-21T05:36:09;12.93;;;7.40;;
13731;SDS011;6937;56.096;12.664;2023-03-21T05:38:34;15.27;;;7.32;;
13731;SDS011;6937;56.096;12.664;2023-03-21T05:41:00;8.43;;;6.57;;
13731;SDS011;6937;56.096;12.664;2023-03-21T05:43:25;9.75;;;7.45;;
13731;SDS011;6937;56.096;12.664;2023-03-21T05:45:51;14.23;;;7.82;;
13731;SDS011;6937;56.096;12.664;2023-03-21T05:48:16;13.40;;;8.00;;
13731;SDS011;6937;56.096;12.664;2023-03-21T05:50:42;12.18;;;8.05;;
13731;SDS011;6937;56.096;12.664;2023-03-21T05:53:07;14.52;;;9.55;;
13731;SDS011;6937;56.096;12.664;2023-03-21T05:55:33;12.38;;;8.13;;
13731;SDS011;6937;56.096;12.664;2023-03-21T05:57:58;12.13;;;8.25;;
13731;SDS011;6937;56.096;12.664;2023-03-21T06:00:24;36.78;;;9.55;;
13731;SDS011;6937;56.096;12.664;2023-03-21T06:02:50;26.88;;;8.80;;
13731;SDS011;6937;56.096;12.664;2023-03-21T06:05:15;18.38;;;7.75;;
13731;SDS011;6937;56.096;12.664;2023-03-21T06:07:40;31.60;;;8.52;;
13731;SDS011;6937;56.096;12.664;2023-03-21T06:10:06;14.57;;;7.50;;
13731;SDS011;6937;56.096;12.664;2023-03-21T06:12:31;38.40;;;9.25;;
13731;SDS011;6937;56.096;12.664;2023-03-21T06:14:57;11.75;;;7.50;;
13731;SDS011;6937;56.096;12.664;2023-03-21T06:17:23;41.10;;;8.82;;
13731;SDS011;6937;56.096;12.664;2023-03-21T06:19:48;108.40;;;12.85;;
13731;SDS011;6937;56.096;12.664;2023-03-21T06:22:14;35.58;;;10.02;;
13731;SDS011;6937;56.096;12.664;2023-03-21T06:24:40;51.90;;;9.40;;
13731;SDS011;6937;56.096;12.664;2023-03-21T06:27:05;147.32;;;12.80;;
13731;SDS011;6937;56.096;12.664;2023-03-21T06:29:31;83.93;;;10.88;;
13731;SDS011;6937;56.096;12.664;2023-03-21T06:31:56;69.88;;;10.50;;
13731;SDS011;6937;56.096;12.664;2023-03-21T06:34:21;105.32;;;11.80;;
13731;SDS011;6937;56.096;12.664;2023-03-21T06:36:47;273.50;;;18.10;;
13731;SDS011;6937;56.096;12.664;2023-03-21T06:39:12;261.90;;;15.50;;
13731;SDS011;6937;56.096;12.664;2023-03-21T06:41:39;171.52;;;12.80;;
13731;SDS011;6937;56.096;12.664;2023-03-21T06:44:05;226.68;;;14.93;;
13731;SDS011;6937;56.096;12.664;2023-03-21T06:46:30;89.87;;;7.30;;
13731;SDS011;6937;56.096;12.664;2023-03-21T06:48:56;97.25;;;7.60;;
13731;SDS011;6937;56.096;12.664;2023-03-21T06:51:21;96.28;;;7.50;;
13731;SDS011;6937;56.096;12.664;2023-03-21T06:53:46;145.47;;;9.20;;
13731;SDS011;6937;56.096;12.664;2023-03-21T06:56:12;102.18;;;6.78;;
13731;SDS011;6937;56.096;12.664;2023-03-21T06:58:39;50.22;;;6.45;;
13731;SDS011;6937;56.096;12.664;2023-03-21T07:01:05;159.30;;;10.82;;
13731;SDS011;6937;56.096;12.664;2023-03-21T07:03:32;266.58;;;13.98;;
13731;SDS011;6937;56.096;12.664;2023-03-21T07:05:58;326.10;;;17.65;;
13731;SDS011;6937;56.096;12.664;2023-03-21T07:08:28;394.58;;;19.75;;
13731;SDS011;6937;56.096;12.664;2023-03-21T07:10:54;289.23;;;17.08;;
13731;SDS011;6937;56.096;12.664;2023-03-21T07:13:21;288.83;;;17.48;;
13731;SDS011;6937;56.096;12.664;2023-03-21T07:15:46;167.50;;;13.05;;
13731;SDS011;6937;56.096;12.664;2023-03-21T07:18:12;235.65;;;15.98;;
13731;SDS011;6937;56.096;12.664;2023-03-21T07:20:37;183.07;;;14.38;;
13731;SDS011;6937;56.096;12.664;2023-03-21T07:23:02;166.20;;;12.17;;
13731;SDS011;6937;56.096;12.664;2023-03-21T07:25:28;139.13;;;12.05;;
13731;SDS011;6937;56.096;12.664;2023-03-21T07:27:54;265.95;;;17.45;;
13731;SDS011;6937;56.096;12.664;2023-03-21T07:30:19;255.52;;;19.10;;
13731;SDS011;6937;56.096;12.664;2023-03-21T07:32:45;124.90;;;12.38;;
13731;SDS011;6937;56.096;12.664;2023-03-21T07:35:12;270.73;;;17.65;;
13731;SDS011;6937;56.096;12.664;2023-03-21T07:37:38;181.23;;;14.95;;
13731;SDS011;6937;56.096;12.664;2023-03-21T07:40:04;134.13;;;13.80;;
13731;SDS011;6937;56.096;12.664;2023-03-21T07:42:34;99.72;;;11.43;;
13731;SDS011;6937;56.096;12.664;2023-03-21T07:44:59;66.53;;;10.55;;
13731;SDS011;6937;56.096;12.664;2023-03-21T07:47:25;111.35;;;12.45;;
13731;SDS011;6937;56.096;12.664;2023-03-21T07:49:50;143.63;;;16.15;;
13731;SDS011;6937;56.096;12.664;2023-03-21T07:52:15;55.00;;;10.82;;
13731;SDS011;6937;56.096;12.664;2023-03-21T07:54:41;120.70;;;15.37;;
13731;SDS011;6937;56.096;12.664;2023-03-21T07:57:06;252.05;;;23.45;;
13731;SDS011;6937;56.096;12.664;2023-03-21T07:59:31;50.08;;;12.27;;
13731;SDS011;6937;56.096;12.664;2023-03-21T08:01:57;83.20;;;14.18;;
13731;SDS011;6937;56.096;12.664;2023-03-21T08:04:22;70.57;;;15.82;;
13731;SDS011;6937;56.096;12.664;2023-03-21T08:06:49;49.58;;;13.27;;
13731;SDS011;6937;56.096;12.664;2023-03-21T08:09:15;40.63;;;12.85;;
13731;SDS011;6937;56.096;12.664;2023-03-21T08:11:40;223.43;;;24.50;;
13731;SDS011;6937;56.096;12.664;2023-03-21T08:14:06;34.35;;;13.98;;
13731;SDS011;6937;56.096;12.664;2023-03-21T08:16:31;38.00;;;11.63;;
13731;SDS011;6937;56.096;12.664;2023-03-21T08:18:56;70.43;;;14.52;;
13731;SDS011;6937;56.096;12.664;2023-03-21T08:21:22;64.38;;;15.05;;
13731;SDS011;6937;56.096;12.664;2023-03-21T08:23:47;100.43;;;14.80;;
13731;SDS011;6937;56.096;12.664;2023-03-21T08:26:13;60.30;;;13.70;;
13731;SDS011;6937;56.096;12.664;2023-03-21T08:28:42;31.13;;;10.90;;
13731;SDS011;6937;56.096;12.664;2023-03-21T08:31:08;28.58;;;11.00;;
13731;SDS011;6937;56.096;12.664;2023-03-21T08:33:35;24.65;;;9.80;;
13731;SDS011;6937;56.096;12.664;2023-03-21T08:36:01;21.13;;;10.23;;
13731;SDS011;6937;56.096;12.664;2023-03-21T08:38:27;19.17;;;9.27;;
13731;SDS011;6937;56.096;12.664;2023-03-21T08:40:56;16.73;;;9.13;;
13731;SDS011;6937;56.096;12.664;2023-03-21T08:43:24;20.85;;;9.02;;
13731;SDS011;6937;56.096;12.664;2023-03-21T08:45:50;26.25;;;11.98;;
13731;SDS011;6937;56.096;12.664;2023-03-21T08:48:16;23.83;;;12.73;;
13731;SDS011;6937;56.096;12.664;2023-03-21T08:50:41;16.85;;;10.10;;
13731;SDS011;6937;56.096;12.664;2023-03-21T08:53:07;21.70;;;12.30;;
13731;SDS011;6937;56.096;12.664;2023-03-21T08:55:32;61.15;;;14.57;;
13731;SDS011;6937;56.096;12.664;2023-03-21T08:58:00;21.35;;;12.45;;
13731;SDS011;6937;56.096;12.664;2023-03-21T09:00:26;14.35;;;10.40;;
13731;SDS011;6937;56.096;12.664;2023-03-21T09:02:52;18.05;;;11.25;;
13731;SDS011;6937;56.096;12.664;2023-03-21T09:05:18;21.30;;;13.73;;
13731;SDS011;6937;56.096;12.664;2023-03-21T09:07:45;18.05;;;11.20;;
13731;SDS011;6937;56.096;12.664;2023-03-21T09:10:12;17.38;;;11.95;;
13731;SDS011;6937;56.096;12.664;2023-03-21T09:12:41;12.82;;;10.57;;
13731;SDS011;6937;56.096;12.664;2023-03-21T09:15:07;14.88;;;10.48;;
13731;SDS011;6937;56.096;12.664;2023-03-21T09:17:34;15.73;;;10.02;;
13731;SDS011;6937;56.096;12.664;2023-03-21T09:20:00;13.32;;;9.13;;
13731;SDS011;6937;56.096;12.664;2023-03-21T09:22:34;14.93;;;8.73;;
13731;SDS011;6937;56.096;12.664;2023-03-21T09:25:01;11.88;;;8.48;;
13731;SDS011;6937;56.096;12.664;2023-03-21T09:27:26;12.25;;;8.35;;
13731;SDS011;6937;56.096;12.664;2023-03-21T09:29:52;11.60;;;7.65;;
13731;SDS011;6937;56.096;12.664;2023-03-21T09:32:18;8.27;;;6.68;;
13731;SDS011;6937;56.096;12.664;2023-03-21T09:34:44;8.88;;;7.05;;
13731;SDS011;6937;56.096;12.664;2023-03-21T09:37:10;8.02;;;6.72;;
13731;SDS011;6937;56.096;12.664;2023-03-21T09:39:37;7.40;;;6.28;;
13731;SDS011;6937;56.096;12.664;2023-03-21T09:49:34;11.10;;;8.38;;
13731;SDS011;6937;56.096;12.664;2023-03-21T09:52:08;11.23;;;8.30;;
13731;SDS011;6937;56.096;12.664;2023-03-21T09:54:41;16.00;;;9.52;;
13731;SDS011;6937;56.096;12.664;2023-03-21T09:59:38;14.13;;;9.32;;
13731;SDS011;6937;56.096;12.664;2023-03-21T10:02:19;12.38;;;9.75;;
13731;SDS011;6937;56.096;12.664;2023-03-21T10:04:57;15.05;;;10.30;;
13731;SDS011;6937;56.096;12.664;2023-03-21T10:07:24;15.25;;;10.50;;
13731;SDS011;6937;56.096;12.664;2023-03-21T10:09:54;13.25;;;10.30;;
13731;SDS011;6937;56.096;12.664;2023-03-21T10:12:22;14.57;;;10.32;;
13731;SDS011;6937;56.096;12.664;2023-03-21T10:14:54;11.88;;;9.13;;
13731;SDS011;6937;56.096;12.664;2023-03-21T10:17:27;10.93;;;7.93;;
13731;SDS011;6937;56.096;12.664;2023-03-21T10:22:45;9.73;;;7.82;;
13731;SDS011;6937;56.096;12.664;2023-03-21T10:25:14;9.48;;;6.90;;
13731;SDS011;6937;56.096;12.664;2023-03-21T10:27:42;10.63;;;6.68;;
13731;SDS011;6937;56.096;12.664;2023-03-21T10:30:10;9.10;;;6.10;;
13731;SDS011;6937;56.096;12.664;2023-03-21T10:32:44;10.23;;;5.15;;
13731;SDS011;6937;56.096;12.664;2023-03-21T10:35:11;10.52;;;5.03;;
13731;SDS011;6937;56.096;12.664;2023-03-21T10:37:38;8.05;;;4.63;;
13731;SDS011;6937;56.096;12.664;2023-03-21T10:40:04;7.28;;;5.68;;
13731;SDS011;6937;56.096;12.664;2023-03-21T10:42:32;10.82;;;5.82;;
13731;SDS011;6937;56.096;12.664;2023-03-21T10:44:59;10.18;;;6.25;;
13731;SDS011;6937;56.096;12.664;2023-03-21T10:47:26;10.52;;;6.57;;
13731;SDS011;6937;56.096;12.664;2023-03-21T10:49:56;10.32;;;6.40;;
13731;SDS011;6937;56.096;12.664;2023-03-21T10:52:26;10.23;;;7.18;;
13731;SDS011;6937;56.096;12.664;2023-03-21T10:57:41;12.35;;;8.43;;
13731;SDS011;6937;56.096;12.664;2023-03-21T11:00:07;13.68;;;8.75;;
13731;SDS011;6937;56.096;12.664;2023-03-21T11:02:41;12.63;;;9.88;;
13731;SDS011;6937;56.096;12.664;2023-03-21T11:05:11;17.13;;;10.55;;
13731;SDS011;6937;56.096;12.664;2023-03-21T11:07:43;14.30;;;10.45;;
13731;SDS011;6937;56.096;12.664;2023-03-21T11:10:24;16.20;;;10.73;;
13731;SDS011;6937;56.096;12.664;2023-03-21T11:12:55;15.38;;;11.57;;
13731;SDS011;6937;56.096;12.664;2023-03-21T11:15:41;16.70;;;13.48;;
13731;SDS011;6937;56.096;12.664;2023-03-21T11:18:22;18.58;;;14.27;;
13731;SDS011;6937;56.096;12.664;2023-03-21T11:20:56;18.02;;;13.32;;
13731;SDS011;6937;56.096;12.664;2023-03-21T11:23:27;18.45;;;13.93;;
13731;SDS011;6937;56.096;12.664;2023-03-21T11:25:56;20.05;;;14.35;;
13731;SDS011;6937;56.096;12.664;2023-03-21T11:28:25;16.60;;;12.93;;
13731;SDS011;6937;56.096;12.664;2023-03-21T11:30:58;20.50;;;13.93;;
13731;SDS011;6937;56.096;12.664;2023-03-21T11:33:36;19.30;;;14.20;;
13731;SDS011;6937;56.096;12.664;2023-03-21T11:36:25;19.17;;;14.25;;
13731;SDS011;6937;56.096;12.664;2023-03-21T11:38:58;16.33;;;12.88;;
13731;SDS011;6937;56.096;12.664;2023-03-21T11:41:38;16.25;;;13.15;;
13731;SDS011;6937;56.096;12.664;2023-03-21T11:44:06;19.05;;;13.18;;
13731;SDS011;6937;56.096;12.664;2023-03-21T11:46:47;15.68;;;12.75;;
13731;SDS011;6937;56.096;12.664;2023-03-21T11:49:12;19.40;;;13.77;;
13731;SDS011;6937;56.096;12.664;2023-03-21T11:54:42;16.73;;;13.10;;
13731;SDS011;6937;56.096;12.664;2023-03-21T12:00:37;18.83;;;13.23;;
13731;SDS011;6937;56.096;12.664;2023-03-21T12:05:47;17.73;;;13.38;;
13731;SDS011;6937;56.096;12.664;2023-03-21T12:08:24;17.45;;;12.70;;
13731;SDS011;6937;56.096;12.664;2023-03-21T12:14:16;17.35;;;12.52;;
13731;SDS011;6937;56.096;12.664;2023-03-21T12:17:29;14.93;;;12.02;;
13731;SDS011;6937;56.096;12.664;2023-03-21T12:22:43;15.43;;;10.98;;
13731;SDS011;6937;56.096;12.664;2023-03-21T12:25:30;15.95;;;11.70;;
13731;SDS011;6937;56.096;12.664;2023-03-21T12:28:20;14.10;;;10.73;;
13731;SDS011;6937;56.096;12.664;2023-03-21T12:34:24;13.02;;;10.18;;
13731;SDS011;6937;56.096;12.664;2023-03-21T12:37:17;14.05;;;10.38;;
13731;SDS011;6937;56.096;12.664;2023-03-21T12:39:45;16.63;;;11.38;;
13731;SDS011;6937;56.096;12.664;2023-03-21T12:45:13;15.13;;;11.15;;
13731;SDS011;6937;56.096;12.664;2023-03-21T12:47:44;16.35;;;11.57;;
13731;SDS011;6937;56.096;12.664;2023-03-21T12:50:22;15.70;;;11.10;;
13731;SDS011;6937;56.096;12.664;2023-03-21T12:52:53;15.20;;;11.02;;
13731;SDS011;6937;56.096;12.664;2023-03-21T12:55:41;17.00;;;11.73;;
13731;SDS011;6937;56.096;12.664;2023-03-21T12:58:24;17.45;;;11.68;;
13731;SDS011;6937;56.096;12.664;2023-03-21T13:00:56;13.75;;;9.90;;
13731;SDS011;6937;56.096;12.664;2023-03-21T13:03:28;18.35;;;11.10;;
13731;SDS011;6937;56.096;12.664;2023-03-21T13:05:55;15.57;;;11.32;;
13731;SDS011;6937;56.096;12.664;2023-03-21T13:08:30;14.73;;;10.65;;
13731;SDS011;6937;56.096;12.664;2023-03-21T13:11:00;15.02;;;11.20;;
13731;SDS011;6937;56.096;12.664;2023-03-21T13:13:33;14.80;;;11.00;;
13731;SDS011;6937;56.096;12.664;2023-03-21T13:21:38;16.48;;;12.43;;
13731;SDS011;6937;56.096;12.664;2023-03-21T13:24:17;21.98;;;15.85;;
13731;SDS011;6937;56.096;12.664;2023-03-21T13:26:56;25.63;;;16.80;;
13731;SDS011;6937;56.096;12.664;2023-03-21T13:29:28;23.92;;;16.67;;
13731;SDS011;6937;56.096;12.664;2023-03-21T13:31:58;32.42;;;18.52;;
13731;SDS011;6937;56.096;12.664;2023-03-21T13:34:48;34.33;;;19.38;;
13731;SDS011;6937;56.096;12.664;2023-03-21T13:37:19;31.48;;;18.65;;
13731;SDS011;6937;56.096;12.664;2023-03-21T13:39:45;32.40;;;20.10;;
13731;SDS011;6937;56.096;12.664;2023-03-21T13:42:20;39.25;;;20.25;;
13731;SDS011;6937;56.096;12.664;2023-03-21T13:44:49;41.80;;;20.85;;
13731;SDS011;6937;56.096;12.664;2023-03-21T13:47:21;33.90;;;19.92;;
13731;SDS011;6937;56.096;12.664;2023-03-21T13:55:38;30.92;;;19.75;;
13731;SDS011;6937;56.096;12.664;2023-03-21T13:58:22;32.22;;;19.23;;
13731;SDS011;6937;56.096;12.664;2023-03-21T14:03:57;31.02;;;19.60;;
13731;SDS011;6937;56.096;12.664;2023-03-21T14:06:24;32.85;;;20.83;;
13731;SDS011;6937;56.096;12.664;2023-03-21T14:08:58;37.80;;;22.05;;
13731;SDS011;6937;56.096;12.664;2023-03-21T14:11:25;38.38;;;21.90;;
13731;SDS011;6937;56.096;12.664;2023-03-21T14:13:52;40.35;;;22.77;;
13731;SDS011;6937;56.096;12.664;2023-03-21T14:16:18;38.70;;;22.92;;
13731;SDS011;6937;56.096;12.664;2023-03-21T14:18:53;51.42;;;24.15;;
13731;SDS011;6937;56.096;12.664;2023-03-21T14:21:26;60.45;;;26.23;;
13731;SDS011;6937;56.096;12.664;2023-03-21T14:26:22;99.45;;;31.67;;
13731;SDS011;6937;56.096;12.664;2023-03-21T14:28:49;76.45;;;28.58;;
13731;SDS011;6937;56.096;12.664;2023-03-21T14:31:17;82.85;;;30.00;;
13731;SDS011;6937;56.096;12.664;2023-03-21T14:33:49;67.22;;;29.45;;
13731;SDS011;6937;56.096;12.664;2023-03-21T14:36:19;76.47;;;30.95;;
13731;SDS011;6937;56.096;12.664;2023-03-21T14:38:55;72.38;;;30.75;;
13731;SDS011;6937;56.096;12.664;2023-03-21T14:41:27;66.25;;;30.48;;
13731;SDS011;6937;56.096;12.664;2023-03-21T14:44:54;76.20;;;32.05;;
13731;SDS011;6937;56.096;12.664;2023-03-21T14:47:03;63.28;;;30.58;;
13731;SDS011;6937;56.096;12.664;2023-03-21T14:49:33;73.22;;;33.25;;
13731;SDS011;6937;56.096;12.664;2023-03-21T14:52:04;77.82;;;32.50;;
13731;SDS011;6937;56.096;12.664;2023-03-21T14:54:34;71.35;;;33.05;;
13731;SDS011;6937;56.096;12.664;2023-03-21T14:57:02;97.65;;;35.90;;
13731;SDS011;6937;56.096;12.664;2023-03-21T14:59:32;68.63;;;32.88;;
13731;SDS011;6937;56.096;12.664;2023-03-21T15:02:01;94.68;;;37.05;;
13731;SDS011;6937;56.096;12.664;2023-03-21T15:04:29;93.32;;;36.47;;
13731;SDS011;6937;56.096;12.664;2023-03-21T15:06:56;88.63;;;36.58;;
13731;SDS011;6937;56.096;12.664;2023-03-21T15:09:26;84.68;;;38.15;;
13731;SDS011;6937;56.096;12.664;2023-03-21T15:11:54;71.13;;;34.55;;
13731;SDS011;6937;56.096;12.664;2023-03-21T15:14:26;79.28;;;36.33;;
13731;SDS011;6937;56.096;12.664;2023-03-21T15:16:55;80.93;;;36.67;;
13731;SDS011;6937;56.096;12.664;2023-03-21T15:19:24;79.40;;;36.90;;
13731;SDS011;6937;56.096;12.664;2023-03-21T15:21:55;78.43;;;37.45;;
13731;SDS011;6937;56.096;12.664;2023-03-21T15:24:31;83.80;;;38.38;;
13731;SDS011;6937;56.096;12.664;2023-03-21T15:27:02;86.95;;;39.88;;
13731;SDS011;6937;56.096;12.664;2023-03-21T15:29:30;81.93;;;38.53;;
13731;SDS011;6937;56.096;12.664;2023-03-21T15:31:58;86.22;;;40.45;;
13731;SDS011;6937;56.096;12.664;2023-03-21T15:34:27;84.68;;;39.17;;
13731;SDS011;6937;56.096;12.664;2023-03-21T15:36:59;84.47;;;41.00;;
13731;SDS011;6937;56.096;12.664;2023-03-21T15:39:29;71.40;;;38.38;;
13731;SDS011;6937;56.096;12.664;2023-03-21T15:45:00;75.85;;;38.05;;
13731;SDS011;6937;56.096;12.664;2023-03-21T15:47:49;73.43;;;40.30;;
13731;SDS011;6937;56.096;12.664;2023-03-21T15:50:28;78.70;;;40.17;;
13731;SDS011;6937;56.096;12.664;2023-03-21T15:52:59;62.08;;;36.97;;
13731;SDS011;6937;56.096;12.664;2023-03-21T15:55:28;78.70;;;40.05;;
13731;SDS011;6937;56.096;12.664;2023-03-21T15:58:09;57.28;;;35.25;;
13731;SDS011;6937;56.096;12.664;2023-03-21T16:00:40;77.30;;;39.70;;
13731;SDS011;6937;56.096;12.664;2023-03-21T16:03:21;68.88;;;37.33;;
13731;SDS011;6937;56.096;12.664;2023-03-21T16:11:40;55.80;;;32.45;;
13731;SDS011;6937;56.096;12.664;2023-03-21T16:14:16;60.45;;;33.47;;